Time;durP1;ratioP1;P1;durP2;ratioP2;P2;SDS_P1;SDS_P2;PMS_P1;PMS_P2;Temp;Humidity;BMP_temperature;BMP_pressure;BME280_temperature;BME280_humidity;BME280_pressure;Samples;Min_cycle;Max_cycle;Signal;HPM_P1;HPM_P2
2021/10/14 00:01:17;;;;;;;0.30;0.20;;;;;;;7.05;100.00;101325.97;5032759;28;20876;-57
2021/10/14 00:03:44;;;;;;;0.30;0.20;;;;;;;7.04;100.00;101334.78;5032464;28;20458;-57
2021/10/14 00:06:11;;;;;;;0.30;0.20;;;;;;;7.19;100.00;101333.94;5032703;28;20478;-57
2021/10/14 00:08:38;;;;;;;0.30;0.20;;;;;;;7.06;100.00;101326.84;5032790;28;20475;-57
2021/10/14 00:11:05;;;;;;;0.30;0.20;;;;;;;7.04;100.00;101334.78;5032388;28;21091;-57
2021/10/14 00:13:32;;;;;;;0.30;0.20;;;;;;;6.93;100.00;101333.88;5033103;28;20491;-57
2021/10/14 00:15:59;;;;;;;1.03;1.03;;;;;;;6.76;100.00;101331.19;5032617;28;20484;-57
2021/10/14 00:18:26;;;;;;;0.50;0.50;;;;;;;6.80;100.00;101343.50;5032523;28;20448;-56
2021/10/14 00:20:53;;;;;;;0.30;0.20;;;;;;;6.90;100.00;101352.38;5032348;28;20471;-57
2021/10/14 00:23:22;;;;;;;0.30;0.20;;;;;;;6.81;100.00;101347.03;5032513;28;20510;-56
2021/10/14 00:25:48;;;;;;;0.30;0.20;;;;;;;7.00;100.00;101345.38;5032466;28;20451;-56
2021/10/14 00:28:15;;;;;;;0.30;0.20;;;;;;;7.02;100.00;101347.13;5032738;28;20864;-56
2021/10/14 00:30:42;;;;;;;0.83;0.83;;;;;;;7.17;100.00;101342.75;5032387;28;20510;-56
2021/10/14 00:33:10;;;;;;;0.30;0.20;;;;;;;7.28;100.00;101344.53;5032687;28;20455;-56
2021/10/14 00:35:37;;;;;;;0.30;0.20;;;;;;;7.35;100.00;101335.72;5032150;28;20452;-57
2021/10/14 00:38:04;;;;;;;0.30;0.20;;;;;;;7.37;100.00;101323.38;5032436;28;20505;-56
2021/10/14 00:40:33;;;;;;;0.30;0.23;;;;;;;7.28;100.00;101327.81;5032032;28;20926;-57
2021/10/14 00:43:00;;;;;;;0.30;0.20;;;;;;;7.27;100.00;101331.31;5032277;28;20455;-56
2021/10/14 00:45:27;;;;;;;0.30;0.20;;;;;;;7.09;100.00;101333.03;5032178;28;20497;-57
2021/10/14 00:47:54;;;;;;;0.30;0.20;;;;;;;7.14;100.00;101327.78;5032249;28;20880;-56
2021/10/14 00:50:21;;;;;;;0.40;0.30;;;;;;;7.12;100.00;101326.84;5039488;28;20495;-56
2021/10/14 00:52:51;;;;;;;0.30;0.20;;;;;;;7.08;100.00;101323.34;5038053;28;20474;-56
2021/10/14 00:55:19;;;;;;;0.30;0.20;;;;;;;7.12;100.00;101326.84;5032098;28;20478;-56
2021/10/14 00:57:47;;;;;;;0.30;0.20;;;;;;;7.15;100.00;101326.00;5032122;28;20491;-56
2021/10/14 01:00:14;;;;;;;0.30;0.20;;;;;;;7.05;100.00;101319.81;5031984;28;20491;-56
2021/10/14 01:02:42;;;;;;;0.30;0.20;;;;;;;7.00;100.00;101321.56;5031977;28;20487;-56
2021/10/14 01:05:09;;;;;;;0.30;0.20;;;;;;;6.95;100.00;101316.25;5032249;28;20538;-56
2021/10/14 01:07:37;;;;;;;0.30;0.20;;;;;;;6.84;100.00;101310.94;5031895;28;20447;-56
2021/10/14 01:10:05;;;;;;;0.30;0.20;;;;;;;6.84;100.00;101304.75;5032195;28;20479;-56
2021/10/14 01:12:33;;;;;;;0.30;0.20;;;;;;;6.74;100.00;101303.88;5032231;28;20459;-56
2021/10/14 01:15:14;;;;;;;0.30;0.20;;;;;;;6.80;100.00;101297.72;5034308;28;21044;-56
2021/10/14 01:17:41;;;;;;;4.53;0.93;;;;;;;6.68;100.00;101298.56;5035838;28;20526;-57
2021/10/14 01:20:09;;;;;;;0.30;0.20;;;;;;;6.73;100.00;101306.50;5036347;28;20507;-53
2021/10/14 01:22:36;;;;;;;0.30;0.20;;;;;;;6.67;100.00;101306.47;5035978;28;20922;-54
2021/10/14 01:25:03;;;;;;;0.30;0.20;;;;;;;6.71;100.00;101308.25;5035769;28;20452;-54
2021/10/14 01:27:30;;;;;;;0.87;0.80;;;;;;;6.69;100.00;101302.94;5035685;28;20451;-53
2021/10/14 01:29:57;;;;;;;0.30;0.20;;;;;;;6.86;100.00;101310.09;5035659;28;20475;-53
2021/10/14 01:32:24;;;;;;;0.30;0.20;;;;;;;6.62;100.00;101290.63;5036101;28;20455;-53
2021/10/14 01:34:51;;;;;;;0.30;0.20;;;;;;;6.77;100.00;101292.44;5035569;28;20505;-53
2021/10/14 01:37:18;;;;;;;0.30;0.20;;;;;;;6.91;100.00;101290.69;5035445;28;20526;-53
2021/10/14 01:39:45;;;;;;;0.30;0.20;;;;;;;6.86;100.00;101287.19;5035569;28;20456;-54
2021/10/14 01:42:11;;;;;;;0.30;0.20;;;;;;;6.88;100.00;101290.69;5035484;28;20506;-53
2021/10/14 01:44:38;;;;;;;0.30;0.20;;;;;;;6.97;100.00;101293.34;5035509;28;20447;-54
2021/10/14 01:47:05;;;;;;;0.30;0.20;;;;;;;6.92;100.00;101294.22;5035381;28;20475;-53
2021/10/14 01:49:32;;;;;;;0.30;0.20;;;;;;;6.98;100.00;101286.28;5036016;28;20443;-53
2021/10/14 01:52:03;;;;;;;0.33;0.27;;;;;;;7.13;100.00;101284.59;5047592;28;20494;-54
2021/10/14 01:54:30;;;;;;;0.30;0.20;;;;;;;7.14;100.00;101285.47;5035248;28;20505;-54
2021/10/14 01:56:57;;;;;;;0.30;0.20;;;;;;;7.11;100.00;101298.66;5035198;28;20497;-53
2021/10/14 01:59:24;;;;;;;0.30;0.20;;;;;;;7.03;100.00;101290.72;5035042;28;20961;-55
2021/10/14 02:01:51;;;;;;;0.30;0.20;;;;;;;7.09;100.00;101284.56;5035151;28;20518;-53
2021/10/14 02:04:19;;;;;;;0.30;0.20;;;;;;;7.12;100.00;101274.88;5035073;28;20536;-53
2021/10/14 02:06:46;;;;;;;0.30;0.20;;;;;;;7.23;100.00;101276.66;5035021;28;20452;-53
2021/10/14 02:09:12;;;;;;;0.30;0.20;;;;;;;7.19;100.00;101281.06;5035031;28;20483;-53
2021/10/14 02:11:39;;;;;;;0.30;0.20;;;;;;;7.16;100.00;101281.06;5034787;28;20479;-53
2021/10/14 02:14:06;;;;;;;0.30;0.20;;;;;;;7.16;100.00;101283.72;5035171;28;20459;-53
2021/10/14 02:16:33;;;;;;;0.30;0.20;;;;;;;7.37;100.00;101277.53;5034777;28;20545;-53
2021/10/14 02:19:00;;;;;;;0.30;0.20;;;;;;;7.39;100.00;101274.00;5034910;28;20456;-54
2021/10/14 02:21:27;;;;;;;0.30;0.20;;;;;;;7.32;100.00;101282.84;5029654;28;20512;-55
2021/10/14 02:23:54;;;;;;;0.30;0.20;;;;;;;7.38;100.00;101269.59;5031726;28;20824;-53
2021/10/14 02:26:21;;;;;;;0.30;0.20;;;;;;;7.36;100.00;101276.66;5034292;28;20953;-54
2021/10/14 02:28:48;;;;;;;0.53;0.53;;;;;;;7.36;100.00;101265.19;5034547;28;20451;-54
2021/10/14 02:31:15;;;;;;;0.30;0.20;;;;;;;7.45;100.00;101273.16;5034593;28;20480;-54
2021/10/14 02:33:42;;;;;;;0.30;0.30;;;;;;;7.49;100.00;101269.59;5034749;28;20538;-54
2021/10/14 02:36:09;;;;;;;0.30;0.20;;;;;;;7.56;100.00;101267.84;5034408;28;20872;-54
2021/10/14 02:38:36;;;;;;;0.40;0.30;;;;;;;7.57;100.00;101270.50;5034638;28;20978;-55
2021/10/14 02:41:03;;;;;;;0.30;0.20;;;;;;;7.52;100.00;101274.00;5034460;28;20521;-54
2021/10/14 02:43:31;;;;;;;0.30;0.20;;;;;;;7.50;100.00;101266.06;5034189;28;20448;-54
2021/10/14 02:45:58;;;;;;;0.30;0.20;;;;;;;7.59;100.00;101265.22;5034554;28;20475;-54
2021/10/14 02:48:25;;;;;;;0.30;0.20;;;;;;;7.65;100.00;101268.72;5034068;28;20451;-54
2021/10/14 02:50:52;;;;;;;0.30;0.20;;;;;;;7.67;100.00;101272.22;5034061;28;20480;-54
2021/10/14 02:53:19;;;;;;;0.30;0.20;;;;;;;7.78;100.00;101276.63;5033995;28;20983;-54
2021/10/14 02:55:45;;;;;;;0.30;0.20;;;;;;;7.74;100.00;101270.47;5034127;28;20455;-53
2021/10/14 02:58:12;;;;;;;0.30;0.20;;;;;;;7.80;100.00;101281.03;5034073;28;20487;-54
2021/10/14 03:00:40;;;;;;;0.30;0.20;;;;;;;7.75;100.00;101281.94;5034103;28;20560;-53
2021/10/14 03:03:07;;;;;;;0.30;0.20;;;;;;;7.83;100.00;101283.72;5034017;28;20479;-54
2021/10/14 03:05:34;;;;;;;0.30;0.20;;;;;;;7.84;100.00;101274.88;5033928;28;21010;-54
2021/10/14 03:08:01;;;;;;;0.30;0.20;;;;;;;7.79;100.00;101270.47;5033851;28;20491;-54
2021/10/14 03:10:28;;;;;;;0.30;0.20;;;;;;;7.81;100.00;101277.53;5033460;28;20483;-54
2021/10/14 03:12:54;;;;;;;0.30;0.20;;;;;;;7.90;100.00;101274.88;5033737;28;20483;-54
2021/10/14 03:15:21;;;;;;;0.30;0.20;;;;;;;7.98;100.00;101275.75;5033736;28;20505;-55
2021/10/14 03:17:48;;;;;;;0.30;0.20;;;;;;;7.92;100.00;101265.16;5033611;28;20487;-54
2021/10/14 03:20:15;;;;;;;0.30;0.20;;;;;;;7.94;100.00;101271.31;5033630;28;20472;-53
2021/10/14 03:22:42;;;;;;;0.30;0.20;;;;;;;7.81;100.00;101266.03;5033517;28;20470;-53
2021/10/14 03:25:09;;;;;;;0.30;0.20;;;;;;;7.87;100.00;101266.06;5033514;28;20475;-53
2021/10/14 03:27:36;;;;;;;0.30;0.20;;;;;;;7.96;100.00;101266.03;5032455;28;20486;-53
2021/10/14 03:30:05;;;;;;;0.30;0.20;;;;;;;8.03;100.00;101259.84;5033398;28;20988;-54
2021/10/14 03:32:32;;;;;;;0.30;0.20;;;;;;;7.99;100.00;101263.38;5033654;28;20452;-53
2021/10/14 03:34:59;;;;;;;0.47;0.47;;;;;;;8.04;100.00;101261.59;5033277;28;20506;-54
2021/10/14 03:37:26;;;;;;;0.60;0.57;;;;;;;8.14;100.00;101263.34;5032527;28;20498;-54
2021/10/14 03:39:53;;;;;;;0.30;0.20;;;;;;;8.17;100.00;101258.03;5033107;28;20533;-54
2021/10/14 03:42:21;;;;;;;0.30;0.20;;;;;;;8.25;100.00;101263.31;5032281;28;20451;-54
2021/10/14 03:44:48;;;;;;;0.30;0.20;;;;;;;8.27;100.00;101266.84;5033023;28;20455;-54
2021/10/14 03:47:14;;;;;;;1.67;1.60;;;;;;;8.19;100.00;101264.19;5033565;28;20443;-54
2021/10/14 03:49:42;;;;;;;0.40;0.20;;;;;;;8.13;100.00;101261.56;5034776;28;20451;-54
2021/10/14 03:52:09;;;;;;;0.30;0.20;;;;;;;8.23;100.00;101265.09;5044391;28;20522;-54
2021/10/14 03:54:35;;;;;;;0.30;0.20;;;;;;;8.17;100.00;101267.75;5033250;28;20505;-54
2021/10/14 03:57:03;;;;;;;0.30;0.20;;;;;;;8.27;100.00;101272.13;5033205;28;20487;-54
2021/10/14 03:59:29;;;;;;;0.30;0.20;;;;;;;8.38;100.00;101277.44;5032811;28;20491;-54
2021/10/14 04:01:56;;;;;;;0.40;0.40;;;;;;;8.38;100.00;101270.38;5033062;28;20501;-54
2021/10/14 04:04:24;;;;;;;0.30;0.20;;;;;;;8.39;100.00;101272.13;5032979;28;20823;-54
2021/10/14 04:06:51;;;;;;;0.83;0.83;;;;;;;8.49;100.00;101263.22;5032788;28;20452;-54
2021/10/14 04:09:17;;;;;;;0.30;0.20;;;;;;;8.56;100.00;101269.41;5032618;28;20506;-54
2021/10/14 04:11:45;;;;;;;0.30;0.20;;;;;;;8.58;100.00;101278.22;5032623;28;20993;-54
2021/10/14 04:14:12;;;;;;;0.30;0.20;;;;;;;8.63;100.00;101273.75;5032658;28;20948;-54
2021/10/14 04:16:38;;;;;;;0.60;0.60;;;;;;;8.72;100.00;101271.06;5033303;28;20495;-53
2021/10/14 04:19:07;;;;;;;0.40;0.40;;;;;;;8.78;100.00;101272.84;5032453;28;20451;-54
2021/10/14 04:21:36;;;;;;;0.70;0.70;;;;;;;8.79;100.00;101266.63;5032591;28;20475;-53
2021/10/14 04:24:03;;;;;;;0.30;0.20;;;;;;;8.87;100.00;101262.16;5032500;28;20460;-54
2021/10/14 04:26:30;;;;;;;0.30;0.20;;;;;;;8.90;100.00;101268.31;5032764;28;20447;-54
2021/10/14 04:28:57;;;;;;;0.43;0.40;;;;;;;8.88;100.00;101278.06;5032507;28;20479;-54
2021/10/14 04:31:24;;;;;;;0.37;0.30;;;;;;;8.86;100.00;101273.66;5032317;28;20508;-55
2021/10/14 04:33:51;;;;;;;0.43;0.43;;;;;;;8.90;100.00;101272.72;5032571;28;20463;-54
2021/10/14 04:36:18;;;;;;;0.80;0.73;;;;;;;9.00;100.00;101261.19;5032385;28;20980;-54
2021/10/14 04:38:45;;;;;;;0.30;0.20;;;;;;;8.92;100.00;101260.38;5032206;28;20530;-54
2021/10/14 04:41:11;;;;;;;0.30;0.20;;;;;;;8.89;100.00;101260.38;5032533;28;20889;-54
2021/10/14 04:43:38;;;;;;;0.30;0.20;;;;;;;9.03;100.00;101265.59;5032313;28;20490;-54
2021/10/14 04:46:07;;;;;;;0.30;0.20;;;;;;;9.03;100.00;101268.25;5047500;28;20505;-54
2021/10/14 04:48:34;;;;;;;0.30;0.20;;;;;;;9.00;100.00;101269.16;5032087;28;20806;-53
2021/10/14 04:51:02;;;;;;;0.40;0.20;;;;;;;8.98;100.00;101256.78;5044938;28;20997;-54
2021/10/14 04:53:29;;;;;;;0.30;0.20;;;;;;;8.97;100.00;101261.22;5032395;28;20482;-54
2021/10/14 04:55:56;;;;;;;0.30;0.20;;;;;;;8.98;100.00;101257.66;5032119;28;20456;-54
2021/10/14 04:58:23;;;;;;;0.30;0.20;;;;;;;8.98;100.00;101257.66;5031909;28;20487;-54
2021/10/14 05:00:50;;;;;;;0.30;0.20;;;;;;;8.93;100.00;101255.94;5032031;28;20842;-54
2021/10/14 05:03:18;;;;;;;0.30;0.20;;;;;;;9.03;100.00;101258.50;5032157;28;20801;-54
2021/10/14 05:05:46;;;;;;;0.30;0.20;;;;;;;9.05;100.00;101256.75;5032285;28;20459;-54
2021/10/14 05:08:13;;;;;;;0.30;0.20;;;;;;;9.08;100.00;101258.50;5032068;28;20863;-54
2021/10/14 05:10:41;;;;;;;0.30;0.20;;;;;;;9.12;100.00;101250.50;5031740;28;20530;-54
2021/10/14 05:13:08;;;;;;;0.30;0.20;;;;;;;9.17;100.00;101248.69;5032109;28;20998;-54
2021/10/14 05:15:40;;;;;;;0.30;0.20;;;;;;;9.21;100.00;101257.53;5031785;28;20546;-54
2021/10/14 05:18:08;;;;;;;0.70;0.70;;;;;;;9.26;100.00;101254.81;5031870;28;20525;-54
2021/10/14 05:20:35;;;;;;;0.30;0.20;;;;;;;9.31;100.00;101256.53;5031970;28;20502;-54
2021/10/14 05:23:02;;;;;;;2.90;2.70;;;;;;;9.45;100.00;101253.78;5032409;28;20448;-54
2021/10/14 05:25:29;;;;;;;0.30;0.20;;;;;;;9.44;100.00;101255.53;5031977;28;20452;-54
2021/10/14 05:28:00;;;;;;;0.30;0.20;;;;;;;9.38;100.00;101254.72;5031779;28;20446;-54
2021/10/14 05:30:27;;;;;;;0.30;0.20;;;;;;;9.27;100.00;101252.16;5031669;28;20476;-54
2021/10/14 05:32:54;;;;;;;0.40;0.40;;;;;;;9.22;100.00;101258.41;5032039;28;20863;-54
2021/10/14 05:35:35;;;;;;;0.30;0.20;;;;;;;9.12;100.00;101253.16;5031711;28;20478;-53
2021/10/14 05:38:03;;;;;;;0.30;0.20;;;;;;;9.08;100.00;101256.72;5031788;28;21027;-54
2021/10/14 05:40:30;;;;;;;0.30;0.20;;;;;;;9.10;100.00;101246.97;5031594;28;20476;-53
2021/10/14 05:42:57;;;;;;;0.47;0.40;;;;;;;9.19;100.00;101254.88;5031779;28;20451;-54
2021/10/14 05:45:24;;;;;;;0.30;0.20;;;;;;;9.19;100.00;101256.66;5031639;28;20509;-54
2021/10/14 05:47:51;;;;;;;0.30;0.20;;;;;;;9.19;100.00;101252.22;5031839;28;20517;-53
2021/10/14 05:50:18;;;;;;;0.30;0.20;;;;;;;9.23;100.00;101250.44;5038308;28;20498;-54
2021/10/14 05:52:45;;;;;;;0.30;0.20;;;;;;;9.45;100.00;101249.34;5038144;28;20848;-54
2021/10/14 05:55:12;;;;;;;0.30;0.20;;;;;;;9.43;100.00;101244.94;5018654;28;21006;-55
2021/10/14 05:57:39;;;;;;;0.30;0.20;;;;;;;9.40;100.00;101248.50;5031546;28;20566;-54
2021/10/14 06:00:06;;;;;;;0.30;0.20;;;;;;;9.51;100.00;101253.75;5032273;28;20499;-53
2021/10/14 06:02:33;;;;;;;0.30;0.20;;;;;;;9.71;100.00;101251.75;5035212;28;20497;-53
2021/10/14 06:05:00;;;;;;;0.40;0.40;;;;;;;9.65;100.00;101253.63;5035132;28;20937;-54
2021/10/14 06:07:27;;;;;;;0.30;0.20;;;;;;;9.82;100.00;101249.00;5034956;28;20451;-54
2021/10/14 06:09:54;;;;;;;0.30;0.20;;;;;;;9.66;100.00;101248.28;5034958;28;20975;-54
2021/10/14 06:12:21;;;;;;;0.30;0.20;;;;;;;9.61;100.00;101255.44;5034764;28;20502;-54
2021/10/14 06:14:48;;;;;;;0.30;0.20;;;;;;;9.56;100.00;101246.59;5034880;28;20448;-53
2021/10/14 06:17:15;;;;;;;0.30;0.20;;;;;;;9.58;100.00;101252.78;5034643;28;20900;-54
2021/10/14 06:19:41;;;;;;;0.30;0.20;;;;;;;9.47;100.00;101254.66;5034846;28;20447;-54
2021/10/14 06:22:08;;;;;;;0.30;0.20;;;;;;;9.34;100.00;101261.84;5034363;28;20802;-54
2021/10/14 06:24:35;;;;;;;0.30;0.20;;;;;;;9.41;100.00;101262.66;5034701;28;20590;-54
2021/10/14 06:27:02;;;;;;;0.30;0.20;;;;;;;9.53;100.00;101257.25;5034462;28;20452;-54
2021/10/14 06:29:29;;;;;;;0.30;0.20;;;;;;;9.55;100.00;101260.78;5034516;28;20451;-53
2021/10/14 06:31:56;;;;;;;0.30;0.20;;;;;;;9.65;100.00;101265.09;5034443;28;20977;-54
2021/10/14 06:34:23;;;;;;;0.40;0.30;;;;;;;9.64;100.00;101268.66;5034659;28;20483;-54
2021/10/14 06:36:50;;;;;;;0.30;0.20;;;;;;;9.65;100.00;101257.16;5034262;28;20458;-54
2021/10/14 06:39:17;;;;;;;1.33;1.33;;;;;;;9.76;100.00;101259.72;5034842;28;20534;-54
2021/10/14 06:41:44;;;;;;;0.30;0.20;;;;;;;9.76;100.00;101257.06;5034526;28;20883;-54
2021/10/14 06:44:11;;;;;;;0.30;0.20;;;;;;;9.75;100.00;101258.81;5034458;28;20933;-54
2021/10/14 06:46:39;;;;;;;0.30;0.20;;;;;;;9.83;100.00;101258.75;5034206;28;20949;-54
2021/10/14 06:49:06;;;;;;;0.30;0.20;;;;;;;9.84;100.00;101254.31;5034309;28;20877;-54
2021/10/14 06:51:33;;;;;;;0.30;0.20;;;;;;;9.87;100.00;101260.50;5047683;28;20467;-54
2021/10/14 06:54:00;;;;;;;0.30;0.20;;;;;;;9.90;100.00;101262.22;5034087;28;20878;-54
2021/10/14 06:56:27;;;;;;;0.40;0.30;;;;;;;10.03;100.00;101261.22;5034037;28;20514;-54
2021/10/14 06:58:55;;;;;;;0.30;0.20;;;;;;;10.00;100.00;101256.78;5034096;28;20487;-54
2021/10/14 07:01:21;;;;;;;0.30;0.20;;;;;;;10.03;100.00;101261.22;5033895;28;20506;-54
2021/10/14 07:03:49;;;;;;;0.30;0.20;;;;;;;10.09;100.00;101256.69;5033896;28;20816;-54
2021/10/14 07:06:16;;;;;;;0.30;0.20;;;;;;;10.11;100.00;101256.66;5034347;28;20514;-54
2021/10/14 07:08:43;;;;;;;0.30;0.20;;;;;;;10.09;100.00;101254.03;5033794;28;20447;-54
2021/10/14 07:11:10;;;;;;;0.30;0.20;;;;;;;10.14;100.00;101250.44;5033212;28;20476;-54
2021/10/14 07:13:38;;;;;;;0.30;0.20;;;;;;;10.18;100.00;101247.75;5033221;28;20947;-54
2021/10/14 07:16:05;;;;;;;0.30;0.30;;;;;;;10.08;100.00;101249.63;5033629;28;20455;-54
2021/10/14 07:18:32;;;;;;;0.30;0.20;;;;;;;10.18;100.00;101245.09;5032284;28;20495;-54
2021/10/14 07:20:59;;;;;;;2.13;2.03;;;;;;;10.14;100.00;101247.78;5033998;28;20479;-57
2021/10/14 07:23:27;;;;;;;0.30;0.20;;;;;;;10.29;100.00;101251.19;5032448;28;20454;-57
2021/10/14 07:25:55;;;;;;;0.30;0.20;;;;;;;10.27;100.00;101247.66;5033742;28;20447;-57
2021/10/14 07:28:24;;;;;;;0.30;0.20;;;;;;;10.12;100.00;101250.47;5033728;28;20895;-56
2021/10/14 07:30:54;;;;;;;0.30;0.20;;;;;;;10.23;100.00;101251.25;5033236;28;20472;-56
2021/10/14 07:33:21;;;;;;;0.40;0.30;;;;;;;10.23;100.00;101255.69;5033430;28;21047;-56
2021/10/14 07:35:48;;;;;;;0.30;0.20;;;;;;;10.24;100.00;101254.78;5033586;28;20454;-56
2021/10/14 07:38:15;;;;;;;0.30;0.20;;;;;;;10.18;100.00;101252.19;5033438;28;20545;-55
2021/10/14 07:40:43;;;;;;;0.30;0.20;;;;;;;10.39;100.00;101258.13;5033296;28;20884;-56
2021/10/14 07:43:12;;;;;;;0.30;0.20;;;;;;;10.46;100.00;101258.97;5033186;28;20505;-57
2021/10/14 07:45:41;;;;;;;0.30;0.20;;;;;;;10.38;100.00;101256.38;5033226;28;20452;-57
2021/10/14 07:48:08;;;;;;;0.30;0.20;;;;;;;10.52;100.00;101255.34;5033224;28;20443;-56
2021/10/14 07:50:36;;;;;;;0.70;0.70;;;;;;;10.61;100.00;101257.88;5042196;28;20467;-57
2021/10/14 07:53:14;;;;;;;0.30;0.20;;;;;;;10.66;100.00;101253.38;5036770;28;20972;-57
2021/10/14 07:55:44;;;;;;;0.30;0.20;;;;;;;10.75;100.00;101257.69;5032938;28;20933;-56
2021/10/14 07:58:11;;;;;;;0.30;0.20;;;;;;;10.71;100.00;101258.66;5032634;28;20519;-57
2021/10/14 08:00:39;;;;;;;0.30;0.20;;;;;;;10.82;100.00;101252.25;5033353;28;20507;-57
2021/10/14 08:03:07;;;;;;;0.30;0.20;;;;;;;10.94;100.00;101253.88;5033114;28;20451;-57
2021/10/14 08:05:34;;;;;;;0.30;0.20;;;;;;;11.21;100.00;101255.22;5033021;28;21023;-57
2021/10/14 08:08:04;;;;;;;0.40;0.33;;;;;;;11.36;100.00;101257.66;5031546;28;20971;-57
2021/10/14 08:10:33;;;;;;;0.30;0.20;;;;;;;11.46;100.00;101261.03;5032507;28;20483;-56
2021/10/14 08:13:00;;;;;;;0.30;0.20;;;;;;;11.65;100.00;101264.25;5032625;28;20506;-57
2021/10/14 08:15:28;;;;;;;0.30;0.20;;;;;;;11.86;100.00;101259.47;5032587;28;20451;-56
2021/10/14 08:17:55;;;;;;;0.30;0.20;;;;;;;11.73;100.00;101265.91;5019495;28;20843;-56
2021/10/14 08:20:22;;;;;;;0.30;0.20;;;;;;;12.04;100.00;101260.03;5029473;28;20481;-56
2021/10/14 08:22:49;;;;;;;0.30;0.30;;;;;;;12.05;100.00;101269.78;5030613;28;20456;-56
2021/10/14 08:25:16;;;;;;;0.63;0.63;;;;;;;12.23;100.00;101263.25;5032386;28;20455;-57
2021/10/14 08:27:43;;;;;;;0.30;0.20;;;;;;;12.05;100.00;101257.34;5032613;28;20510;-57
2021/10/14 08:30:13;;;;;;;0.30;0.20;;;;;;;12.09;100.00;101259.06;5032452;28;20595;-56
2021/10/14 08:32:42;;;;;;;0.30;0.20;;;;;;;12.37;100.00;101258.50;5032436;28;20475;-57
2021/10/14 08:35:12;;;;;;;0.30;0.20;;;;;;;12.28;100.00;101248.03;5032376;28;20451;-57
2021/10/14 08:37:40;;;;;;;0.30;0.20;;;;;;;12.30;100.00;101255.06;5032262;28;20444;-56
2021/10/14 08:40:07;;;;;;;0.30;0.20;;;;;;;12.38;100.00;101258.47;5032487;28;20476;-56
2021/10/14 08:42:35;;;;;;;0.77;0.77;;;;;;;12.33;100.00;101254.13;5032428;28;20451;-57
2021/10/14 08:45:05;;;;;;;0.40;0.20;;;;;;;12.46;100.00;101252.97;5032304;28;21005;-57
2021/10/14 08:47:32;;;;;;;0.30;0.20;;;;;;;12.63;100.00;101257.97;5032461;28;20971;-56
2021/10/14 08:49:59;;;;;;;0.30;0.20;;;;;;;12.68;100.00;101259.63;5036122;28;20532;-57
2021/10/14 08:52:26;;;;;;;0.30;0.20;;;;;;;12.83;100.00;101252.19;5041159;28;20498;-56
2021/10/14 08:54:54;;;;;;;0.30;0.20;;;;;;;12.68;100.00;101259.63;5032328;28;20835;-57
2021/10/14 08:57:21;;;;;;;0.40;0.40;;;;;;;12.70;100.00;101257.78;5032328;28;20477;-57
2021/10/14 08:59:48;;;;;;;0.30;0.20;;;;;;;12.62;100.00;101254.44;5031841;28;20527;-57
2021/10/14 09:02:18;;;;;;;0.30;0.30;;;;;;;12.61;100.00;101263.34;5032286;28;20844;-57
2021/10/14 09:04:48;;;;;;;0.30;0.20;;;;;;;12.57;100.00;101258.09;5031926;28;20451;-57
2021/10/14 09:07:17;;;;;;;0.30;0.20;;;;;;;12.67;100.00;101263.19;5032415;28;20459;-57
2021/10/14 09:09:46;;;;;;;0.30;0.20;;;;;;;12.60;100.00;101266.00;5032001;28;20455;-57
2021/10/14 09:12:15;;;;;;;1.13;1.07;;;;;;;12.72;99.24;101255.09;5032077;28;20525;-57
2021/10/14 09:15:03;;;;;;;0.30;0.20;;;;;;;12.67;99.41;101257.00;5032163;28;20480;-57
2021/10/14 09:17:54;;;;;;;0.30;0.20;;;;;;;13.04;98.40;101254.38;5031923;28;20504;-56
2021/10/14 09:20:20;;;;;;;0.30;0.20;;;;;;;13.07;97.43;101250.75;5019137;28;20537;-57
2021/10/14 09:23:01;;;;;;;0.40;0.30;;;;;;;13.20;95.99;101241.59;5018670;28;20458;-57
2021/10/14 09:25:41;;;;;;;0.30;0.20;;;;;;;13.17;96.40;101252.31;5031752;28;20505;-57
2021/10/14 09:28:28;;;;;;;2.70;1.53;;;;;;;13.11;97.24;101247.09;5031935;28;20467;-57
2021/10/14 09:30:59;;;;;;;0.70;0.70;;;;;;;13.24;95.61;101248.59;5031743;28;20463;-57
2021/10/14 09:33:39;;;;;;;0.30;0.20;;;;;;;13.30;94.64;101246.66;5031795;28;20455;-56
2021/10/14 09:36:21;;;;;;;4.00;1.70;;;;;;;13.20;95.34;101246.91;5034087;28;20451;-56
2021/10/14 09:38:53;;;;;;;0.30;0.30;;;;;;;13.15;94.54;101244.31;5035404;28;20522;-57
2021/10/14 09:41:22;;;;;;;0.30;0.20;;;;;;;13.17;94.60;101242.50;5035546;28;20467;-57
2021/10/14 09:43:52;;;;;;;0.30;0.20;;;;;;;13.25;94.28;101232.53;5035415;28;20447;-57
2021/10/14 09:46:42;;;;;;;0.30;0.20;;;;;;;13.49;93.97;101241.72;5035396;28;20494;-57
2021/10/14 09:49:28;;;;;;;0.30;0.20;;;;;;;13.49;95.50;101233.72;5024935;28;20444;-57
2021/10/14 09:51:57;;;;;;;0.40;0.30;;;;;;;13.90;92.91;101239.78;5022418;28;20482;-57
2021/10/14 09:54:24;;;;;;;0.40;0.40;;;;;;;13.80;92.63;101236.47;5035080;28;20490;-57
2021/10/14 09:56:51;;;;;;;0.30;0.20;;;;;;;14.01;91.74;101232.34;5035206;28;20479;-56
2021/10/14 09:59:18;;;;;;;0.30;0.20;;;;;;;14.33;91.68;101233.22;5035335;28;20490;-57
2021/10/14 10:01:45;;;;;;;0.30;0.20;;;;;;;14.46;89.41;101232.88;5035255;28;20510;-57
2021/10/14 10:04:12;;;;;;;0.30;0.20;;;;;;;14.61;89.57;101228.84;5035175;28;20486;-57
2021/10/14 10:06:41;;;;;;;0.30;0.20;;;;;;;14.62;88.44;101222.56;5035417;28;20514;-57
2021/10/14 10:09:31;;;;;;;0.30;0.20;;;;;;;14.47;89.00;101226.59;5035002;28;20455;-56
2021/10/14 10:12:00;;;;;;;0.30;0.20;;;;;;;14.57;88.09;101220.97;5035171;28;20463;-57
2021/10/14 10:14:27;;;;;;;0.30;0.20;;;;;;;14.76;88.52;101220.34;5035074;28;20444;-57
2021/10/14 10:16:58;;;;;;;0.30;0.20;;;;;;;14.52;89.50;101224.63;5035299;28;20509;-57
2021/10/14 10:19:47;;;;;;;0.30;0.20;;;;;;;14.57;89.64;101223.66;5034696;28;20578;-56
2021/10/14 10:22:35;;;;;;;0.40;0.40;;;;;;;14.79;89.04;101219.38;5034923;28;20825;-57
2021/10/14 10:25:24;;;;;;;0.50;0.40;;;;;;;14.68;87.35;101213.50;5034833;28;20444;-57
2021/10/14 10:27:53;;;;;;;0.30;0.20;;;;;;;14.81;86.29;101206.84;5023459;28;20490;-57
2021/10/14 10:30:40;;;;;;;0.47;0.47;;;;;;;14.58;86.55;101210.22;5034364;28;20463;-57
2021/10/14 10:33:08;;;;;;;0.30;0.20;;;;;;;14.98;85.17;101208.97;5035001;28;20451;-57
2021/10/14 10:35:41;;;;;;;0.30;0.20;;;;;;;14.98;84.94;101209.84;5034948;28;20925;-57
2021/10/14 10:38:23;;;;;;;0.30;0.20;;;;;;;15.03;85.08;101217.72;5034613;28;20474;-57
2021/10/14 10:40:53;;;;;;;0.30;0.20;;;;;;;15.03;84.92;101212.38;5022512;28;20467;-56
2021/10/14 10:43:26;;;;;;;0.30;0.20;;;;;;;15.09;84.27;101205.03;5034331;28;20813;-56
2021/10/14 10:45:56;;;;;;;0.30;0.20;;;;;;;15.27;84.74;101198.19;5034060;28;20995;-57
2021/10/14 10:48:34;;;;;;;0.30;0.20;;;;;;;15.17;84.56;101210.13;5034292;28;20816;-57
2021/10/14 10:51:02;;;;;;;0.30;0.20;;;;;;;15.27;83.46;101200.00;5046846;28;20478;-57
2021/10/14 10:53:41;;;;;;;0.30;0.20;;;;;;;15.57;83.82;101207.00;5034253;28;20945;-57
2021/10/14 10:56:37;;;;;;;0.30;0.20;;;;;;;15.55;83.67;101206.16;5034113;28;20517;-57
2021/10/14 10:59:05;;;;;;;0.40;0.30;;;;;;;15.81;83.65;101199.94;5034098;28;20519;-57
2021/10/14 11:01:32;;;;;;;0.30;0.20;;;;;;;15.92;82.62;101202.25;5033933;28;20479;-57
2021/10/14 11:04:02;;;;;;;0.30;0.20;;;;;;;15.81;83.27;101186.53;5034325;28;20871;-56
2021/10/14 11:06:32;;;;;;;0.30;0.20;;;;;;;16.08;82.59;101187.34;5034022;28;20452;-57
2021/10/14 11:09:04;;;;;;;0.30;0.20;;;;;;;16.14;82.93;101184.41;5033896;28;20479;-57
2021/10/14 11:11:35;;;;;;;0.30;0.20;;;;;;;16.16;82.37;101181.66;5033812;28;20853;-57
2021/10/14 11:14:03;;;;;;;0.40;0.30;;;;;;;16.14;82.75;101175.50;5033714;28;20444;-57
2021/10/14 11:16:31;;;;;;;0.50;0.50;;;;;;;16.26;82.22;101175.03;5034114;28;20497;-57
2021/10/14 11:19:00;;;;;;;0.30;0.20;;;;;;;16.16;81.96;101174.50;5033817;28;20461;-57
2021/10/14 11:21:39;;;;;;;0.33;0.20;;;;;;;16.13;82.86;101173.75;5033674;28;20547;-57
2021/10/14 11:24:07;;;;;;;0.50;0.47;;;;;;;16.34;81.68;101166.72;5033473;28;20482;-57
2021/10/14 11:26:37;;;;;;;0.40;0.20;;;;;;;16.04;81.46;101169.63;5033565;28;20474;-57
2021/10/14 11:29:17;;;;;;;0.40;0.20;;;;;;;16.28;81.62;101159.75;5033793;28;20870;-57
2021/10/14 11:31:47;;;;;;;0.30;0.20;;;;;;;16.36;81.16;101156.78;5033536;28;20517;-57